Time;durP1;ratioP1;P1;durP2;ratioP2;P2;SDS_P1;SDS_P2;PMS_P1;PMS_P2;Temp;Humidity;BMP_temperature;BMP_pressure;BME280_temperature;BME280_humidity;BME280_pressure;Samples;Min_cycle;Max_cycle;Signal;HPM_P1;HPM_P2
2022/05/27 00:01:59;;;;;;;12.85;2.50;;;;;;;14.25;100.00;101883.25;5075972;28;20048;-43
2022/05/27 00:04:24;;;;;;;6.85;2.35;;;;;;;14.15;100.00;101889.53;5075968;28;20425;-42
2022/05/27 00:06:49;;;;;;;9.38;2.50;;;;;;;14.17;100.00;101894.56;5075866;28;20090;-43
2022/05/27 00:09:14;;;;;;;9.00;2.40;;;;;;;14.05;100.00;101894.25;5075452;28;20402;-43
2022/05/27 00:11:40;;;;;;;8.88;2.65;;;;;;;13.96;100.00;101895.34;5075442;28;20028;-42
2022/05/27 00:14:05;;;;;;;14.10;2.80;;;;;;;13.97;100.00;101889.16;5075483;28;20100;-44
2022/05/27 00:16:30;;;;;;;10.13;2.83;;;;;;;14.08;100.00;101880.88;5075738;28;20093;-44
2022/05/27 00:18:57;;;;;;;7.30;2.30;;;;;;;13.97;100.00;101889.16;5075621;28;20056;-43
2022/05/27 00:21:22;;;;;;;10.05;2.35;;;;;;;14.00;100.00;101892.19;5075614;28;20021;-43
2022/05/27 00:23:48;;;;;;;9.98;2.35;;;;;;;13.97;100.00;101891.75;5075315;28;20460;-43
2022/05/27 00:26:13;;;;;;;7.97;2.40;;;;;;;13.95;100.00;101888.50;5075750;28;20055;-43
2022/05/27 00:28:39;;;;;;;8.05;2.22;;;;;;;14.04;100.00;101890.03;5075524;28;20032;-44
2022/05/27 00:31:05;;;;;;;12.13;2.50;;;;;;;13.98;100.00;101895.94;5075375;28;20429;-44
2022/05/27 00:33:31;;;;;;;8.68;2.40;;;;;;;13.94;100.00;101886.91;5075307;28;20103;-43
2022/05/27 00:35:57;;;;;;;8.63;2.40;;;;;;;13.88;100.00;101892.84;5075095;28;20026;-43
2022/05/27 00:38:22;;;;;;;5.00;1.90;;;;;;;13.82;100.00;101896.97;5075031;28;20035;-44
2022/05/27 00:40:50;;;;;;;7.53;2.30;;;;;;;13.71;100.00;101885.22;5074922;28;20040;-43
2022/05/27 00:43:16;;;;;;;12.20;2.75;;;;;;;13.82;100.00;101898.75;5074732;28;20028;-43
2022/05/27 00:45:45;;;;;;;7.30;2.53;;;;;;;13.80;100.00;101895.53;5075395;28;20024;-44
2022/05/27 00:48:19;;;;;;;8.88;2.58;;;;;;;13.83;100.00;101895.16;5075461;28;20091;-42
2022/05/27 00:50:46;;;;;;;8.95;2.30;;;;;;;13.90;100.00;101889.06;5074751;28;20214;-52
2022/05/27 00:53:15;;;;;;;10.52;2.67;;;;;;;13.83;100.00;101884.78;5074882;28;20062;-43
2022/05/27 00:55:48;;;;;;;10.45;2.70;;;;;;;13.84;100.00;101871.63;5074661;28;20515;-42
2022/05/27 00:58:20;;;;;;;9.23;2.80;;;;;;;13.83;100.00;101866.59;5074819;28;20072;-44
2022/05/27 01:00:47;;;;;;;9.50;2.88;;;;;;;13.87;100.00;101863.47;5056750;28;20028;-42
2022/05/27 01:03:15;;;;;;;7.95;2.67;;;;;;;13.94;100.00;101851.34;5074460;28;20427;-40
2022/05/27 01:05:41;;;;;;;8.65;2.72;;;;;;;13.87;100.00;101845.28;5074985;28;20467;-41
2022/05/27 01:08:08;;;;;;;12.25;2.85;;;;;;;13.89;100.00;101863.25;5074200;28;20059;-43
2022/05/27 01:10:55;;;;;;;9.60;2.50;;;;;;;13.84;100.00;101868.19;5074109;28;20482;-41
2022/05/27 01:13:42;;;;;;;9.43;2.70;;;;;;;13.79;100.00;101857.56;5073924;28;20386;-43
2022/05/27 01:16:41;;;;;;;10.52;2.63;;;;;;;13.84;100.00;101866.41;5074503;28;20533;-42
2022/05/27 01:22:17;;;;;;;10.35;2.58;;;;;;;13.75;100.00;101875.28;5074441;28;20178;-42
2022/05/27 01:25:11;;;;;;;11.88;2.60;;;;;;;13.78;99.13;101874.91;5073982;28;20020;-47
2022/05/27 01:27:36;;;;;;;11.50;2.45;;;;;;;13.83;100.00;101869.19;5074513;28;20051;-44
2022/05/27 01:30:20;;;;;;;14.60;2.50;;;;;;;13.72;99.28;101875.63;5056167;28;20463;-42
2022/05/27 01:32:56;;;;;;;11.93;2.60;;;;;;;13.74;99.77;101866.69;5074144;28;20675;-44
2022/05/27 01:35:28;;;;;;;7.78;2.65;;;;;;;13.74;99.86;101865.88;5073909;28;20471;-43
2022/05/27 01:38:08;;;;;;;9.45;2.60;;;;;;;13.66;99.68;101869.38;5074212;28;20021;-43
2022/05/27 01:40:44;;;;;;;15.07;2.58;;;;;;;13.49;100.00;101873.97;5055952;28;20020;-42
2022/05/27 01:43:19;;;;;;;14.95;2.65;;;;;;;13.51;100.00;101871.19;5074317;28;20421;-43
2022/05/27 01:45:55;;;;;;;13.18;2.50;;;;;;;13.47;100.00;101868.16;5073727;28;20479;-43
2022/05/27 01:48:28;;;;;;;10.43;2.63;;;;;;;13.39;99.61;101876.03;5074232;28;20108;-43
2022/05/27 01:51:18;;;;;;;12.82;2.42;;;;;;;13.45;100.00;101874.50;5074249;28;20352;-42
2022/05/27 01:53:53;;;;;;;12.70;2.80;;;;;;;13.36;99.66;101878.16;5074131;28;20111;-43
2022/05/27 01:56:24;;;;;;;15.77;2.78;;;;;;;13.35;100.00;101871.34;5074062;28;20021;-42
2022/05/27 01:58:57;;;;;;;10.93;2.28;;;;;;;13.27;100.00;101880.84;5073564;28;20024;-42
2022/05/27 02:01:35;;;;;;;7.78;2.38;;;;;;;13.20;100.00;101872.13;5073669;28;20024;-43
2022/05/27 02:04:10;;;;;;;9.07;2.55;;;;;;;13.20;100.00;101885.09;5073960;28;20036;-42
2022/05/27 02:06:49;;;;;;;7.38;2.30;;;;;;;13.22;100.00;101890.13;5073781;28;20211;-43
2022/05/27 02:09:23;;;;;;;8.35;2.50;;;;;;;13.09;100.00;101890.75;5056619;28;20060;-43
2022/05/27 02:11:56;;;;;;;9.75;2.40;;;;;;;13.16;100.00;101883.03;5073736;28;20024;-42
2022/05/27 02:14:35;;;;;;;10.63;2.33;;;;;;;13.02;100.00;101887.22;5073970;28;20021;-42
2022/05/27 02:17:07;;;;;;;8.23;2.10;;;;;;;12.92;100.00;101886.66;5073934;28;20070;-43
2022/05/27 02:19:42;;;;;;;10.45;2.50;;;;;;;13.02;100.00;101884.63;5056083;28;20060;-43
2022/05/27 02:22:12;;;;;;;7.72;2.38;;;;;;;12.96;100.00;101883.53;5073384;28;20024;-43
2022/05/27 02:25:19;;;;;;;9.25;2.35;;;;;;;12.94;100.00;101882.91;5073665;28;20017;-43
2022/05/27 02:27:51;;;;;;;8.00;2.53;;;;;;;12.92;100.00;101884.06;5070747;28;20060;-43
2022/05/27 02:30:21;;;;;;;5.35;2.40;;;;;;;12.87;100.00;101880.22;5073518;28;20108;-41
2022/05/27 02:35:44;;;;;;;6.35;2.30;;;;;;;12.91;100.00;101864.28;5073775;28;20395;-46
2022/05/27 02:38:10;;;;;;;8.57;2.40;;;;;;;12.93;100.00;101873.50;5055613;28;20032;-42
2022/05/27 02:40:50;;;;;;;7.00;2.42;;;;;;;12.86;99.87;101867.44;5073396;28;20028;-43
2022/05/27 02:43:27;;;;;;;11.02;2.70;;;;;;;12.94;100.00;101866.53;5073361;28;20028;-43
2022/05/27 02:45:57;;;;;;;8.70;2.60;;;;;;;12.92;100.00;101865.88;5073391;28;20028;-42
2022/05/27 02:48:39;;;;;;;6.82;2.33;;;;;;;12.84;100.00;101867.59;5073333;28;20082;-43
2022/05/27 02:51:10;;;;;;;14.15;2.47;;;;;;;12.90;100.00;101862.69;5073090;28;20036;-42
2022/05/27 02:53:54;;;;;;;7.50;2.38;;;;;;;12.88;100.00;101863.66;5054891;28;20078;-43
2022/05/27 02:56:21;;;;;;;;;;;;;;;12.97;99.86;101863.56;5056106;28;20130;-42
2022/05/27 02:58:48;;;;;;;9.13;2.45;;;;;;;12.90;99.59;101867.88;5055056;28;19915;-42
2022/05/27 03:01:13;;;;;;;6.55;2.42;;;;;;;12.93;99.89;101854.53;5072927;28;20078;-43
2022/05/27 03:03:39;;;;;;;9.95;2.42;;;;;;;12.88;99.38;101878.41;5072800;28;20028;-40
2022/05/27 03:06:26;;;;;;;14.55;2.58;;;;;;;12.92;100.00;101871.91;5073235;28;20029;-42
2022/05/27 03:09:15;;;;;;;9.60;2.47;;;;;;;13.01;99.92;101870.06;5072958;28;20045;-43
2022/05/27 03:12:05;;;;;;;7.72;2.33;;;;;;;12.98;99.71;101863.41;5073098;28;20028;-42
2022/05/27 03:14:40;;;;;;;7.80;2.25;;;;;;;12.94;99.58;101871.72;5073377;28;20470;-42
2022/05/27 03:17:25;;;;;;;7.25;2.25;;;;;;;12.97;99.56;101876.56;5073110;28;20028;-42
2022/05/27 03:20:05;;;;;;;11.43;2.45;;;;;;;12.96;100.00;101880.13;5072780;28;20028;-43
2022/05/27 03:22:34;;;;;;;7.28;2.28;;;;;;;12.99;99.83;101878.00;5054895;28;20021;-43
2022/05/27 03:25:12;;;;;;;10.60;2.30;;;;;;;12.98;99.91;101886.78;5073046;28;20382;-42
2022/05/27 03:27:46;;;;;;;9.57;2.15;;;;;;;13.03;99.51;101886.22;5073045;28;20020;-42
2022/05/27 03:30:19;;;;;;;7.43;2.15;;;;;;;13.10;99.52;101880.16;5054815;28;20028;-41
2022/05/27 03:33:02;;;;;;;7.47;2.47;;;;;;;13.16;99.36;101883.84;5072651;28;20029;-42
2022/05/27 03:35:43;;;;;;;8.32;2.50;;;;;;;13.14;99.16;101882.41;5056714;28;20035;-41
2022/05/27 03:38:19;;;;;;;8.25;2.10;;;;;;;13.25;98.60;101881.97;5076233;28;20024;-43
2022/05/27 03:40:53;;;;;;;10.48;2.28;;;;;;;13.29;98.62;101881.50;5076481;28;20038;-43
2022/05/27 03:43:20;;;;;;;7.80;2.45;;;;;;;13.38;98.65;101883.97;5076410;28;20455;-42
2022/05/27 03:45:53;;;;;;;8.93;2.72;;;;;;;13.43;98.03;101885.06;5058326;28;20383;-43
2022/05/27 03:48:18;;;;;;;;;;;;;;;13.41;97.83;101889.63;5076393;28;20526;-42
2022/05/27 03:50:47;;;;;;;12.73;3.08;;;;;;;13.43;97.21;101890.25;5075944;28;19962;-41
2022/05/27 03:53:12;;;;;;;7.50;2.45;;;;;;;13.36;97.20;101873.78;5075733;28;20082;-42
2022/05/27 03:55:44;;;;;;;10.52;2.55;;;;;;;13.35;97.35;101884.31;5075905;28;20352;-43
2022/05/27 03:58:10;;;;;;;7.97;2.28;;;;;;;13.35;96.98;101879.97;5057912;28;20024;-43
2022/05/27 04:00:35;;;;;;;7.25;2.30;;;;;;;13.38;96.95;101882.22;5075834;28;20066;-42
2022/05/27 04:03:01;;;;;;;12.00;2.92;;;;;;;13.35;98.17;101887.75;5076067;28;20013;-43
2022/05/27 04:05:26;;;;;;;13.02;2.78;;;;;;;13.36;98.79;101878.16;5058002;28;20020;-42
2022/05/27 04:07:51;;;;;;;7.57;2.40;;;;;;;13.43;98.45;101885.06;5075467;28;20048;-42
2022/05/27 04:10:17;;;;;;;8.65;2.50;;;;;;;13.56;97.95;101881.03;5075858;28;20036;-42
2022/05/27 04:12:42;;;;;;;9.85;2.47;;;;;;;13.61;96.77;101886.47;5075692;28;20032;-42
2022/05/27 04:15:08;;;;;;;11.10;2.58;;;;;;;13.56;96.70;101879.25;5058385;28;20455;-43
2022/05/27 04:17:34;;;;;;;9.43;2.30;;;;;;;13.65;96.67;101878.16;5076101;28;20158;-42
2022/05/27 04:20:00;;;;;;;14.27;2.72;;;;;;;13.71;96.76;101881.84;5075711;28;20467;-41
2022/05/27 04:22:26;;;;;;;20.23;3.13;;;;;;;13.79;96.74;101883.53;5075693;28;20526;-42
2022/05/27 04:24:51;;;;;;;11.70;2.90;;;;;;;13.75;96.84;101890.88;5075433;28;20032;-42
2022/05/27 04:27:19;;;;;;;10.35;2.97;;;;;;;13.66;97.13;101884.16;5075632;28;20052;-43
2022/05/27 04:29:49;;;;;;;8.90;2.70;;;;;;;13.82;97.37;101896.16;5075243;28;20035;-43
2022/05/27 04:32:14;;;;;;;17.95;2.80;;;;;;;13.80;97.03;101885.94;5075103;28;20028;-43
2022/05/27 04:34:43;;;;;;;13.00;2.50;;;;;;;13.84;96.75;101887.22;5057139;28;20036;-42
2022/05/27 04:37:10;;;;;;;10.05;3.13;;;;;;;13.93;95.79;101880.13;5075409;28;20099;-42
2022/05/27 04:39:36;;;;;;;16.15;3.00;;;;;;;13.95;95.40;101884.16;5075621;28;20020;-43
2022/05/27 04:42:01;;;;;;;11.45;2.88;;;;;;;14.07;95.85;101883.66;5074947;28;20020;-42
2022/05/27 04:44:27;;;;;;;11.73;2.92;;;;;;;14.10;95.02;101880.72;5075255;28;20028;-43
2022/05/27 04:46:52;;;;;;;13.07;3.15;;;;;;;13.96;94.01;101890.94;5075380;28;20063;-43
2022/05/27 04:52:03;;;;;;;8.57;2.58;;;;;;;14.12;94.14;101892.50;5075577;28;20086;-43
2022/05/27 04:54:28;;;;;;;12.50;2.65;;;;;;;14.16;94.63;101891.16;5074595;28;20025;-42
2022/05/27 04:56:55;;;;;;;10.73;2.58;;;;;;;14.12;94.41;101899.50;5074700;28;20094;-42
2022/05/27 04:59:21;;;;;;;8.88;2.63;;;;;;;14.13;93.56;101880.34;5074986;28;20366;-42
2022/05/27 05:01:46;;;;;;;11.80;2.60;;;;;;;14.15;93.74;101893.94;5074923;28;20024;-42
2022/05/27 05:04:12;;;;;;;14.25;2.50;;;;;;;14.23;92.99;101897.22;5074543;28;20493;-43
2022/05/27 05:06:37;;;;;;;8.43;2.35;;;;;;;14.29;90.59;101905.28;5074492;28;20031;-43
2022/05/27 05:09:03;;;;;;;11.98;2.60;;;;;;;14.43;90.58;101897.44;5053160;28;20410;-42
2022/05/27 05:11:28;;;;;;;9.65;2.50;;;;;;;14.55;90.60;101900.38;5054905;28;20029;-42
2022/05/27 05:13:53;;;;;;;14.73;2.80;;;;;;;14.59;88.68;101906.03;5054457;28;20495;-43
2022/05/27 05:16:19;;;;;;;7.80;2.00;;;;;;;14.57;89.38;101908.00;5053139;28;20033;-41
2022/05/27 05:18:44;;;;;;;8.63;2.17;;;;;;;14.68;88.27;101904.91;5054372;28;20114;-40
2022/05/27 05:21:09;;;;;;;8.32;2.20;;;;;;;14.65;86.61;101908.69;5054602;28;20025;-42
2022/05/27 05:23:35;;;;;;;9.52;2.33;;;;;;;14.59;86.33;101903.44;5052959;28;20029;-43
2022/05/27 05:26:00;;;;;;;12.60;2.30;;;;;;;14.57;85.44;101911.41;5054183;28;20538;-43
2022/05/27 05:28:26;;;;;;;12.07;2.20;;;;;;;14.55;84.94;101913.38;5053123;28;20082;-42
2022/05/27 05:30:51;;;;;;;10.80;2.30;;;;;;;14.50;82.20;101927.91;5054136;28;20096;-43
2022/05/27 05:33:16;;;;;;;10.52;2.30;;;;;;;14.45;80.64;101928.47;5053931;28;20375;-40
2022/05/27 05:35:42;;;;;;;11.32;2.33;;;;;;;14.51;81.11;101932.13;5054042;28;20033;-43
2022/05/27 05:38:08;;;;;;;11.98;2.40;;;;;;;14.64;81.22;101927.91;5054440;28;20045;-43
2022/05/27 05:40:33;;;;;;;8.55;1.98;;;;;;;15.15;76.81;101929.53;5054929;28;20104;-40
2022/05/27 05:43:01;;;;;;;8.20;2.10;;;;;;;15.29;75.65;101933.03;5053940;28;20021;-43
2022/05/27 05:45:27;;;;;;;15.00;2.38;;;;;;;15.37;76.30;101942.50;5054153;28;20033;-42
2022/05/27 05:47:53;;;;;;;12.90;2.40;;;;;;;15.37;74.95;101939.91;5054080;28;20433;-42
2022/05/27 05:50:20;;;;;;;8.85;2.33;;;;;;;17.77;65.70;101944.56;5053774;28;20036;-41
2022/05/27 05:52:45;;;;;;;12.85;2.50;;;;;;;16.35;70.31;101951.03;5053239;28;20057;-42
2022/05/27 05:55:12;;;;;;;14.10;2.58;;;;;;;17.33;66.45;101952.13;5053650;28;20040;-42
2022/05/27 05:57:43;;;;;;;9.48;2.60;;;;;;;16.25;68.58;101948.78;5053988;28;20025;-43
2022/05/27 06:00:11;;;;;;;12.13;2.60;;;;;;;15.40;70.31;101947.34;5053790;28;20028;-42
2022/05/27 06:02:36;;;;;;;12.70;2.65;;;;;;;15.35;70.74;101953.91;5053533;28;20035;-42
2022/05/27 06:05:03;;;;;;;9.38;2.42;;;;;;;15.24;72.44;101951.81;5053851;28;20037;-42
2022/05/27 06:07:30;;;;;;;15.32;2.60;;;;;;;15.30;72.01;101945.03;5053680;28;20029;-42
2022/05/27 06:09:55;;;;;;;9.82;2.50;;;;;;;15.62;72.22;101950.66;5073201;28;20056;-43
2022/05/27 06:12:23;;;;;;;7.85;2.70;;;;;;;15.95;69.10;101949.06;5073642;28;20036;-42
2022/05/27 06:14:53;;;;;;;12.77;2.70;;;;;;;16.00;70.38;101964.13;5073685;28;20178;-42
2022/05/27 06:17:18;;;;;;;10.48;2.53;;;;;;;17.06;65.86;101955.75;5073394;28;20024;-43
2022/05/27 06:19:43;;;;;;;10.27;2.20;;;;;;;17.75;62.12;101965.72;5055434;28;20059;-43
2022/05/27 06:22:09;;;;;;;15.00;2.60;;;;;;;17.24;62.95;101961.19;5073217;28;20031;-42
2022/05/27 06:24:34;;;;;;;13.20;2.47;;;;;;;16.64;64.22;101963.72;5073841;28;20110;-42
2022/05/27 06:27:00;;;;;;;12.35;2.78;;;;;;;17.63;62.18;101977.78;5073619;28;20021;-43
2022/05/27 06:34:54;;;;;;;10.90;2.58;;;;;;;16.19;62.60;101992.06;5073670;28;20044;-42
2022/05/27 06:37:21;;;;;;;12.23;2.63;;;;;;;15.99;65.40;101988.59;5055035;28;20033;-42
2022/05/27 06:39:47;;;;;;;10.77;2.55;;;;;;;15.90;63.88;101987.94;5073169;28;20382;-43
2022/05/27 06:42:14;;;;;;;11.98;2.80;;;;;;;15.76;63.74;101999.28;5072953;28;20024;-42
2022/05/27 06:44:40;;;;;;;12.30;2.83;;;;;;;15.72;66.28;101995.47;5072930;28;20066;-43
2022/05/27 06:47:06;;;;;;;14.65;3.00;;;;;;;15.60;60.15;101995.16;5073244;28;20020;-41
2022/05/27 06:49:33;;;;;;;15.88;2.70;;;;;;;15.56;60.79;101996.53;5054903;28;20463;-43
2022/05/27 06:51:58;;;;;;;13.18;2.80;;;;;;;15.81;62.50;101996.91;5072832;28;20095;-43
2022/05/27 06:54:23;;;;;;;15.43;2.50;;;;;;;15.84;59.59;102006.16;5073320;28;20480;-42
2022/05/27 06:56:52;;;;;;;16.92;3.15;;;;;;;15.81;60.89;102001.31;5072831;28;20386;-42
2022/05/27 06:59:19;;;;;;;15.60;2.70;;;;;;;15.96;64.70;102004.63;5073091;28;20024;-41
2022/05/27 07:01:45;;;;;;;16.98;3.38;;;;;;;15.97;63.92;102009.66;5055143;28;20124;-42
2022/05/27 07:04:11;;;;;;;15.07;2.78;;;;;;;15.82;62.46;101995.09;5073316;28;20079;-43
2022/05/27 07:06:41;;;;;;;20.05;2.80;;;;;;;15.97;61.77;102009.66;5072806;28;20493;-43
2022/05/27 07:09:07;;;;;;;16.50;3.03;;;;;;;16.04;60.53;102007.06;5072895;28;20072;-42
2022/05/27 07:11:35;;;;;;;24.00;2.95;;;;;;;16.13;60.63;102007.72;5058870;28;20047;-43
2022/05/27 07:14:01;;;;;;;13.95;2.88;;;;;;;15.90;61.88;102003.56;5076823;28;20089;-42
2022/05/27 07:16:27;;;;;;;14.95;2.78;;;;;;;15.78;63.42;101999.91;5076558;28;20470;-42
2022/05/27 07:18:53;;;;;;;19.08;3.10;;;;;;;15.80;63.49;102010.94;5076868;28;20059;-43
2022/05/27 07:21:19;;;;;;;14.98;3.13;;;;;;;15.74;66.17;102016.94;5076662;28;20020;-41
2022/05/27 07:23:45;;;;;;;14.48;2.65;;;;;;;15.81;63.31;102017.78;5076928;28;20123;-41
2022/05/27 07:26:11;;;;;;;23.13;3.22;;;;;;;15.93;64.56;102013.63;5076428;28;20028;-41
2022/05/27 07:28:36;;;;;;;17.98;2.78;;;;;;;16.21;63.57;102008.34;5076140;28;20363;-42
2022/05/27 07:31:02;;;;;;;19.20;2.97;;;;;;;16.84;61.07;102017.81;5076418;28;20023;-43
2022/05/27 07:33:28;;;;;;;11.88;2.88;;;;;;;16.88;60.27;102008.56;5041414;28;20066;-44
2022/05/27 07:35:54;;;;;;;10.32;2.75;;;;;;;16.92;60.39;102018.44;5076622;28;20474;-42
2022/05/27 07:38:19;;;;;;;14.70;2.78;;;;;;;17.19;59.65;102010.59;5076267;28;20024;-42
2022/05/27 07:40:45;;;;;;;18.30;2.90;;;;;;;17.50;59.68;102023.06;5076248;28;20099;-43
2022/05/27 07:43:11;;;;;;;16.67;3.13;;;;;;;17.84;58.83;102021.22;5075989;28;20020;-42
2022/05/27 07:45:39;;;;;;;16.02;2.90;;;;;;;18.52;55.76;102028.59;5075893;28;20020;-43
2022/05/27 07:48:05;;;;;;;15.63;3.10;;;;;;;18.17;55.97;102021.13;5075827;28;20493;-44
2022/05/27 07:50:31;;;;;;;15.40;2.72;;;;;;;18.54;55.38;102025.78;5075722;28;20031;-43
2022/05/27 07:52:56;;;;;;;17.90;2.92;;;;;;;18.32;54.03;102020.06;5041460;28;20028;-43
2022/05/27 07:55:22;;;;;;;10.95;3.22;;;;;;;18.98;52.82;102029.38;5075686;28;20099;-40
2022/05/27 07:57:48;;;;;;;14.85;2.95;;;;;;;19.72;49.65;102019.91;5075909;28;20111;-42
2022/05/27 08:00:20;;;;;;;11.05;2.70;;;;;;;19.58;50.35;102022.63;5075774;28;20100;-42
2022/05/27 08:02:46;;;;;;;15.45;3.40;;;;;;;19.32;49.63;102022.88;5075772;28;20089;-43
2022/05/27 08:05:15;;;;;;;14.90;3.20;;;;;;;18.34;52.61;102038.97;5075456;28;20028;-41
2022/05/27 08:07:40;;;;;;;14.80;2.97;;;;;;;18.35;51.83;102038.75;5075392;28;20032;-42
2022/05/27 08:10:07;;;;;;;12.35;2.75;;;;;;;19.15;48.41;102033.06;5057547;28;20025;-42
2022/05/27 08:12:32;;;;;;;17.90;3.22;;;;;;;19.13;48.90;102035.09;5075645;28;20111;-42
2022/05/27 08:14:58;;;;;;;15.02;2.72;;;;;;;20.16;47.14;102037.16;5057404;28;20431;-44
2022/05/27 08:17:23;;;;;;;16.23;3.20;;;;;;;19.38;49.02;102033.28;5075475;28;20024;-42
2022/05/27 08:19:49;;;;;;;13.15;2.92;;;;;;;18.61;51.13;102035.19;5075526;28;20348;-42
2022/05/27 08:22:14;;;;;;;14.70;3.38;;;;;;;18.87;49.47;102038.72;5057217;28;20459;-42
2022/05/27 08:24:41;;;;;;;16.70;3.40;;;;;;;19.40;50.38;102033.09;5076681;28;20027;-43
2022/05/27 08:27:07;;;;;;;16.77;3.38;;;;;;;19.56;49.94;102039.56;5075921;28;20035;-42
2022/05/27 08:29:32;;;;;;;15.32;3.40;;;;;;;19.65;48.01;102043.59;5075134;28;20025;-43
2022/05/27 08:31:57;;;;;;;16.92;2.78;;;;;;;19.35;45.07;102038.16;5075533;28;20081;-44
2022/05/27 08:39:51;;;;;;;11.63;2.78;;;;;;;20.09;41.69;102040.91;5074978;28;20051;-43
2022/05/27 08:42:19;;;;;;;13.18;2.65;;;;;;;20.37;42.45;102066.59;5056895;28;20025;-41
2022/05/27 08:45:07;;;;;;;12.43;2.72;;;;;;;20.22;44.42;102056.47;5074619;28;20028;-43
2022/05/27 08:47:42;;;;;;;15.10;2.85;;;;;;;20.19;44.05;102051.66;5074691;28;20431;-41
2022/05/27 08:50:16;;;;;;;11.43;2.75;;;;;;;19.96;43.04;102057.56;5057447;28;20039;-43
2022/05/27 08:52:44;;;;;;;11.93;2.75;;;;;;;20.54;43.48;102053.69;5074710;28;20017;-44
2022/05/27 09:01:20;;;;;;;13.75;2.72;;;;;;;18.52;45.91;102072.31;5075129;28;20113;-42
2022/05/27 09:03:51;;;;;;;11.95;3.03;;;;;;;19.27;44.85;102072.50;5074806;28;20387;-43
2022/05/27 09:06:25;;;;;;;10.50;2.90;;;;;;;19.54;41.49;102067.84;5074327;28;20025;-43
2022/05/27 09:08:51;;;;;;;10.90;2.33;;;;;;;19.78;42.81;102064.41;5074274;28;20536;-43
2022/05/27 09:11:45;;;;;;;9.05;2.33;;;;;;;20.59;40.00;102067.75;5056139;28;20123;-42
2022/05/27 09:14:19;;;;;;;9.77;2.55;;;;;;;20.08;39.46;102073.38;5074922;28;20028;-44
2022/05/27 09:16:58;;;;;;;14.68;3.00;;;;;;;20.23;41.18;102071.22;5074813;28;20109;-43
2022/05/27 09:19:33;;;;;;;12.85;2.92;;;;;;;20.16;40.28;102079.16;5074523;28;20025;-42
2022/05/27 09:22:19;;;;;;;11.88;2.95;;;;;;;20.40;41.82;102084.50;5074152;28;20073;-42
2022/05/27 09:25:03;;;;;;;11.30;2.78;;;;;;;19.86;41.02;102086.94;5074124;28;20467;-42
2022/05/27 09:27:44;;;;;;;12.65;2.53;;;;;;;19.57;41.80;102078.69;5074200;28;20037;-44
2022/05/27 09:30:12;;;;;;;16.08;2.58;;;;;;;19.80;41.45;102086.00;5074115;28;20048;-43
2022/05/27 09:32:51;;;;;;;13.80;3.10;;;;;;;20.38;38.63;102084.75;5055605;28;20028;-43
2022/05/27 09:35:31;;;;;;;17.23;3.13;;;;;;;20.65;41.45;102098.38;5056115;28;20028;-41
2022/05/27 09:38:01;;;;;;;14.10;3.30;;;;;;;20.86;40.61;102083.13;5074278;28;20020;-42
2022/05/27 09:40:39;;;;;;;12.00;2.72;;;;;;;21.16;40.52;102085.75;5074096;28;20086;-42
2022/05/27 09:43:13;;;;;;;12.45;3.10;;;;;;;20.82;42.13;102089.88;5074006;28;20024;-42
2022/05/27 09:45:40;;;;;;;15.10;2.92;;;;;;;19.97;40.79;102085.44;5074138;28;20093;-43
2022/05/27 09:48:06;;;;;;;12.80;2.75;;;;;;;20.73;40.76;102086.75;5073279;28;20023;-43
2022/05/27 09:50:43;;;;;;;15.02;3.13;;;;;;;20.41;41.25;102088.75;5073796;28;20028;-42
2022/05/27 09:53:15;;;;;;;11.45;2.58;;;;;;;20.99;42.08;102093.47;5056692;28;20543;-43
2022/05/27 09:55:52;;;;;;;13.30;2.95;;;;;;;20.94;41.75;102086.28;5073427;28;20107;-44
2022/05/27 09:58:27;;;;;;;12.40;2.90;;;;;;;21.12;40.49;102088.03;5073413;28;20066;-42
2022/05/27 10:00:53;;;;;;;13.00;3.05;;;;;;;21.30;40.30;102099.47;5073632;28;20459;-45
2022/05/27 10:03:20;;;;;;;13.80;3.40;;;;;;;21.22;40.02;102090.09;5073802;28;20017;-43
2022/05/27 10:06:09;;;;;;;16.67;3.30;;;;;;;21.74;39.67;102097.34;5073706;28;20036;-42
2022/05/27 10:08:49;;;;;;;13.68;3.10;;;;;;;21.13;42.32;102105.38;5064537;28;20044;-42
2022/05/27 10:11:27;;;;;;;12.10;3.10;;;;;;;21.45;40.42;102099.88;5072765;28;20478;-42
2022/05/27 10:14:12;;;;;;;13.45;2.90;;;;;;;20.33;39.37;102102.19;5073304;28;20031;-44
2022/05/27 10:16:40;;;;;;;14.20;2.97;;;;;;;20.60;41.79;102108.75;5074029;28;20028;-43
2022/05/27 10:19:17;;;;;;;12.15;2.60;;;;;;;21.04;40.14;102113.84;5055758;28;20032;-44
2022/05/27 10:22:02;;;;;;;11.25;2.78;;;;;;;21.38;39.60;102112.34;5073492;28;20036;-43
2022/05/27 10:24:32;;;;;;;17.20;2.85;;;;;;;20.66;41.46;102112.34;5073485;28;20052;-45
2022/05/27 10:27:09;;;;;;;14.05;3.28;;;;;;;20.66;39.17;102102.63;5073456;28;20073;-42
2022/05/27 10:29:47;;;;;;;15.75;3.65;;;;;;;21.13;40.54;102100.13;5055096;28;20447;-43
2022/05/27 10:32:27;;;;;;;14.30;3.03;;;;;;;20.84;39.31;102103.59;5055071;28;20394;-43
2022/05/27 10:34:54;;;;;;;16.08;3.10;;;;;;;20.47;38.70;102101.81;5073696;28;20048;-43
2022/05/27 10:37:34;;;;;;;11.43;3.08;;;;;;;21.12;38.63;102113.50;5073588;28;20024;-43
2022/05/27 10:40:30;;;;;;;13.90;2.92;;;;;;;20.13;40.96;102112.91;5055051;28;20035;-41
2022/05/27 10:43:01;;;;;;;15.95;3.28;;;;;;;20.93;38.17;102112.75;5072917;28;20514;-44
2022/05/27 10:45:40;;;;;;;13.13;3.13;;;;;;;20.86;37.23;102112.03;5077073;28;20021;-41
2022/05/27 10:48:17;;;;;;;8.45;2.60;;;;;;;20.26;39.81;102113.56;5076458;28;20043;-42
2022/05/27 10:50:49;;;;;;;15.48;3.08;;;;;;;20.77;39.82;102116.00;5076618;28;20028;-43
2022/05/27 10:53:47;;;;;;;16.40;3.28;;;;;;;20.76;40.66;102115.22;5076885;28;20032;-44
2022/05/27 10:56:26;;;;;;;13.68;3.13;;;;;;;20.21;39.45;102116.03;5077377;28;20024;-42
2022/05/27 11:02:12;;;;;;;16.37;3.30;;;;;;;19.54;39.80;102118.47;5077095;28;20023;-44
2022/05/27 11:05:01;;;;;;;12.32;3.28;;;;;;;19.95;42.56;102113.69;5077149;28;20271;-45
2022/05/27 11:07:57;;;;;;;12.75;2.95;;;;;;;20.12;42.07;102117.34;5077486;28;20034;-46
2022/05/27 11:10:30;;;;;;;15.30;3.10;;;;;;;21.46;40.01;102125.13;5076568;28;20036;-44
2022/05/27 11:16:34;;;;;;;14.45;2.88;;;;;;;20.48;40.32;102121.81;5077009;28;20043;-44
2022/05/27 11:19:11;;;;;;;15.50;3.00;;;;;;;20.02;41.62;102136.25;5058244;28;20024;-43
2022/05/27 11:22:17;;;;;;;18.65;3.30;;;;;;;19.86;43.80;102142.03;5058243;28;20054;-44
2022/05/27 11:25:13;;;;;;;14.55;3.25;;;;;;;21.23;40.56;102140.84;5058322;28;20027;-43
2022/05/27 11:28:31;;;;;;;13.50;3.00;;;;;;;21.16;41.15;102140.94;5076156;28;20028;-44
2022/05/27 11:31:25;;;;;;;11.95;2.92;;;;;;;20.43;40.68;102147.13;5045149;28;20048;-44
2022/05/27 11:33:59;;;;;;;14.90;3.15;;;;;;;20.88;39.72;102147.56;5076014;28;20090;-43
2022/05/27 11:36:35;;;;;;;12.13;2.78;;;;;;;19.83;40.80;102150.34;5076580;28;20426;-43
2022/05/27 11:39:15;;;;;;;10.73;2.65;;;;;;;19.86;41.03;102139.41;5076049;28;20383;-41
2022/05/27 11:41:59;;;;;;;13.40;2.78;;;;;;;21.03;39.40;102141.13;5075728;28;20031;-41
2022/05/27 11:44:48;;;;;;;10.68;2.60;;;;;;;21.12;37.83;102142.44;5075937;28;20043;-42
2022/05/27 11:47:46;;;;;;;12.52;2.63;;;;;;;19.70;41.50;102145.97;5076345;28;20451;-42
2022/05/27 11:50:21;;;;;;;13.38;2.83;;;;;;;18.94;42.32;102146.88;5058253;28;20028;-42
2022/05/27 11:53:21;;;;;;;14.85;2.83;;;;;;;20.25;40.86;102135.59;5074979;28;20025;-42
2022/05/27 11:56:21;;;;;;;14.75;2.78;;;;;;;20.71;39.35;102136.91;5075280;28;20467;-41
2022/05/27 11:58:49;;;;;;;10.65;2.60;;;;;;;19.46;42.29;102138.91;5075665;28;20115;-41
2022/05/27 12:01:24;;;;;;;12.55;2.75;;;;;;;19.03;42.30;102155.28;5075916;28;20103;-42
2022/05/27 12:03:58;;;;;;;11.77;2.50;;;;;;;20.21;41.12;102150.16;5058208;28;20027;-42
2022/05/27 12:06:48;;;;;;;11.98;2.72;;;;;;;20.70;39.36;102161.56;5058242;28;20027;-44
2022/05/27 12:09:33;;;;;;;10.95;2.40;;;;;;;21.02;38.11;102147.41;5075257;28;20087;-42
2022/05/27 12:12:09;;;;;;;11.43;2.28;;;;;;;21.50;39.96;102165.75;5075275;28;20068;-43
2022/05/27 12:14:41;;;;;;;14.77;3.08;;;;;;;20.89;39.81;102161.53;5075288;28;20028;-43